createdAt,value
2023-04-16T00:01:40.332Z,1.25
2023-04-16T00:04:07.599Z,1.70
2023-04-16T00:06:34.663Z,1.83
2023-04-16T00:09:01.531Z,1.90
2023-04-16T00:11:28.396Z,2.30
2023-04-16T00:13:55.385Z,2.10
2023-04-16T00:16:22.263Z,3.17
2023-04-16T00:18:49.235Z,1.70
2023-04-16T00:21:16.196Z,1.65
2023-04-16T00:23:43.069Z,1.45
2023-04-16T00:26:09.897Z,1.50
2023-04-16T00:28:36.984Z,1.55
2023-04-16T00:31:03.974Z,1.65
2023-04-16T00:33:30.891Z,1.35
2023-04-16T00:35:57.767Z,1.50
2023-04-16T00:38:24.663Z,1.30
2023-04-16T00:40:51.552Z,1.48
2023-04-16T00:43:24.875Z,1.58
2023-04-16T00:45:53.354Z,1.50
2023-04-16T00:48:21.163Z,1.30
2023-04-16T00:50:48.744Z,1.20
2023-04-16T00:53:16.308Z,1.00
2023-04-16T00:55:43.905Z,0.80
2023-04-16T00:58:10.957Z,1.35
2023-04-16T01:00:38.037Z,1.33
2023-04-16T01:03:05.417Z,1.60
2023-04-16T01:05:32.442Z,1.45
2023-04-16T01:08:01.304Z,1.40
2023-04-16T01:10:28.282Z,1.70
2023-04-16T01:12:55.168Z,1.90
2023-04-16T01:15:22.043Z,1.98
2023-04-16T01:17:49.286Z,1.92
2023-04-16T01:20:16.253Z,2.15
2023-04-16T01:22:43.142Z,2.35
2023-04-16T01:25:14.573Z,2.20
2023-04-16T01:27:41.564Z,2.47
2023-04-16T01:30:08.807Z,2.40
2023-04-16T01:32:35.789Z,2.65
2023-04-16T01:35:02.681Z,2.50
2023-04-16T01:37:29.889Z,2.08
2023-04-16T01:39:56.836Z,2.20
2023-04-16T01:42:23.708Z,2.10
2023-04-16T01:44:50.590Z,1.90
2023-04-16T01:47:17.560Z,2.00
2023-04-16T01:49:45.805Z,2.10
2023-04-16T01:52:12.659Z,2.25
2023-04-16T01:54:39.552Z,1.92
2023-04-16T01:57:06.417Z,2.10
2023-04-16T01:59:33.315Z,1.70
2023-04-16T02:02:13.211Z,1.42
2023-04-16T02:04:45.406Z,1.40
2023-04-16T02:07:12.865Z,1.75
2023-04-16T02:09:40.995Z,1.60
2023-04-16T02:12:08.218Z,2.03
2023-04-16T02:14:35.153Z,2.20
2023-04-16T02:17:02.096Z,2.08
2023-04-16T02:19:29.085Z,3.12
2023-04-16T02:21:55.964Z,2.45
2023-04-16T02:24:22.861Z,2.22
2023-04-16T02:26:49.707Z,2.10
2023-04-16T02:29:16.883Z,2.17
2023-04-16T02:31:44.633Z,1.73
2023-04-16T02:34:11.591Z,1.85
2023-04-16T02:36:39.101Z,1.90
2023-04-16T02:39:05.989Z,1.80
2023-04-16T02:41:32.918Z,1.40
2023-04-16T02:43:59.845Z,1.55
2023-04-16T02:46:26.870Z,1.40
2023-04-16T02:48:53.938Z,1.20
2023-04-16T02:51:20.790Z,1.20
2023-04-16T02:53:47.668Z,1.60
2023-04-16T02:56:14.533Z,1.25
2023-04-16T02:58:41.508Z,1.30
2023-04-16T03:01:08.394Z,1.20
2023-04-16T03:03:35.749Z,1.27
2023-04-16T03:06:02.645Z,1.50
2023-04-16T03:08:29.495Z,1.65
2023-04-16T03:10:56.457Z,1.50
2023-04-16T03:13:23.341Z,1.60
2023-04-16T03:15:50.339Z,1.60
2023-04-16T03:18:17.280Z,1.60
2023-04-16T03:20:44.242Z,1.30
2023-04-16T03:23:11.093Z,1.40
2023-04-16T03:25:40.647Z,1.35
2023-04-16T03:28:07.554Z,1.77
2023-04-16T03:30:34.397Z,1.80
2023-04-16T03:33:01.364Z,2.03
2023-04-16T03:35:28.334Z,2.10
2023-04-16T03:37:55.177Z,2.40
2023-04-16T03:40:22.077Z,2.60
2023-04-16T03:42:48.970Z,2.72
2023-04-16T03:45:15.989Z,2.97
2023-04-16T03:47:42.865Z,3.17
2023-04-16T03:50:10.215Z,2.80
2023-04-16T03:52:37.129Z,3.20
2023-04-16T03:55:04.305Z,2.60
2023-04-16T03:57:31.352Z,3.03
2023-04-16T03:59:58.197Z,3.53
2023-04-16T04:02:25.371Z,4.35
2023-04-16T04:04:52.467Z,4.95
2023-04-16T04:07:19.413Z,5.05
2023-04-16T04:09:46.249Z,5.30
2023-04-16T04:12:13.698Z,5.22
2023-04-16T04:14:40.620Z,5.28
2023-04-16T04:17:08.472Z,9.23
2023-04-16T04:19:35.586Z,7.28
2023-04-16T04:22:02.440Z,7.62
2023-04-16T04:24:29.296Z,6.68
2023-04-16T04:26:57.329Z,6.28
2023-04-16T04:29:24.248Z,6.47
2023-04-16T04:31:51.450Z,6.72
2023-04-16T04:34:18.424Z,6.65
2023-04-16T04:36:45.356Z,6.28
2023-04-16T04:39:12.222Z,6.50
2023-04-16T04:41:39.051Z,6.18
2023-04-16T04:46:32.891Z,6.82
2023-04-16T04:48:59.861Z,5.82
2023-04-16T04:51:27.311Z,6.68
2023-04-16T04:53:54.172Z,7.10
2023-04-16T04:56:21.067Z,6.72
2023-04-16T04:58:49.764Z,7.53
2023-04-16T05:01:16.899Z,7.40
2023-04-16T05:03:44.489Z,7.68
2023-04-16T05:06:11.537Z,7.37
2023-04-16T05:08:38.438Z,7.47
2023-04-16T05:11:05.780Z,6.55
2023-04-16T05:13:32.640Z,6.45
2023-04-16T05:16:00.103Z,7.62
2023-04-16T05:18:26.971Z,6.87
2023-04-16T05:20:53.932Z,6.97
2023-04-16T05:23:20.789Z,6.78
2023-04-16T05:25:47.633Z,6.70
2023-04-16T05:28:14.510Z,6.32
2023-04-16T05:30:41.478Z,5.90
2023-04-16T05:33:08.357Z,5.90
2023-04-16T05:35:35.332Z,5.68
2023-04-16T05:38:02.254Z,6.05
2023-04-16T05:40:29.175Z,5.72
2023-04-16T05:42:56.040Z,4.62
2023-04-16T05:45:22.890Z,5.00
2023-04-16T05:47:49.939Z,4.82
2023-04-16T05:50:16.875Z,5.00
2023-04-16T05:52:43.748Z,5.00
2023-04-16T05:55:10.761Z,5.28
2023-04-16T05:57:37.648Z,4.82
2023-04-16T06:00:04.950Z,4.25
2023-04-16T06:02:32.115Z,4.65
2023-04-16T06:04:59.026Z,4.47
2023-04-16T06:07:25.877Z,4.05
2023-04-16T06:09:52.787Z,4.00
2023-04-16T06:12:19.658Z,3.65
2023-04-16T06:14:46.508Z,3.80
2023-04-16T06:17:13.423Z,3.92
2023-04-16T06:19:40.288Z,4.20
2023-04-16T06:22:08.068Z,4.28
2023-04-16T06:24:34.995Z,4.20
2023-04-16T06:27:02.933Z,4.87
2023-04-16T06:29:40.599Z,4.70
2023-04-16T06:32:08.736Z,4.37
2023-04-16T06:34:35.840Z,4.60
2023-04-16T06:37:02.731Z,4.47
2023-04-16T06:39:29.594Z,4.78
2023-04-16T06:41:56.505Z,4.72
2023-04-16T06:44:23.437Z,4.90
2023-04-16T06:46:51.243Z,4.60
2023-04-16T06:49:18.157Z,4.25
2023-04-16T06:51:45.180Z,4.37
2023-04-16T06:54:12.043Z,4.05
2023-04-16T06:56:38.901Z,4.72
2023-04-16T06:59:05.806Z,3.90
2023-04-16T07:01:32.740Z,3.17
2023-04-16T07:03:59.891Z,3.40
2023-04-16T07:06:27.334Z,3.33
2023-04-16T07:08:54.330Z,3.30
2023-04-16T07:11:21.469Z,3.20
2023-04-16T07:13:48.326Z,3.58
2023-04-16T07:16:15.224Z,3.53
2023-04-16T07:18:42.101Z,2.83
2023-04-16T07:21:08.937Z,3.62
2023-04-16T07:23:35.840Z,3.65
2023-04-16T07:26:02.752Z,2.80
2023-04-16T07:28:29.593Z,3.03
2023-04-16T07:30:56.497Z,2.97
2023-04-16T07:33:23.392Z,3.28
2023-04-16T07:35:51.369Z,2.75
2023-04-16T07:38:18.320Z,2.50
2023-04-16T07:40:45.196Z,2.25
2023-04-16T07:43:12.151Z,2.60
2023-04-16T07:45:40.057Z,2.20
2023-04-16T07:48:07.936Z,2.30
2023-04-16T07:50:34.862Z,1.95
2023-04-16T07:53:01.866Z,2.15
2023-04-16T07:55:28.777Z,1.98
2023-04-16T07:57:55.857Z,2.10
2023-04-16T08:00:22.863Z,1.95
2023-04-16T08:02:49.935Z,2.03
2023-04-16T08:05:17.160Z,1.92
2023-04-16T08:07:44.100Z,1.90
2023-04-16T08:10:11.244Z,2.00
2023-04-16T08:12:38.213Z,2.00
2023-04-16T08:15:06.206Z,2.00
2023-04-16T08:17:34.619Z,1.67
2023-04-16T08:20:01.978Z,2.03
2023-04-16T08:22:28.943Z,1.55
2023-04-16T08:24:55.905Z,1.60
2023-04-16T08:27:22.799Z,2.03
2023-04-16T08:29:49.845Z,1.90
2023-04-16T08:32:16.835Z,1.90
2023-04-16T08:34:43.886Z,2.17
2023-04-16T08:37:10.859Z,2.00
2023-04-16T08:39:37.941Z,1.75
2023-04-16T08:42:06.410Z,2.00
2023-04-16T08:44:35.495Z,1.90
2023-04-16T08:47:02.810Z,1.90
2023-04-16T08:49:29.863Z,2.15
2023-04-16T08:51:57.444Z,1.95
2023-04-16T08:54:44.729Z,2.40
2023-04-16T08:57:14.522Z,2.47
2023-04-16T08:59:48.688Z,2.40
2023-04-16T09:02:16.070Z,2.20
2023-04-16T09:04:43.378Z,2.45
2023-04-16T09:07:11.002Z,2.60
2023-04-16T09:09:39.269Z,2.37
2023-04-16T09:12:06.384Z,2.10
2023-04-16T09:14:33.276Z,1.98
2023-04-16T09:17:02.581Z,1.92
2023-04-16T09:19:29.569Z,1.95
2023-04-16T09:21:56.533Z,1.92
2023-04-16T09:24:23.516Z,2.33
2023-04-16T09:26:52.841Z,2.45
2023-04-16T09:29:37.286Z,2.20
2023-04-16T09:32:06.566Z,2.08
2023-04-16T09:34:34.993Z,2.00
2023-04-16T09:37:20.410Z,1.90
2023-04-16T09:39:57.770Z,2.00
2023-04-16T09:42:27.555Z,1.90
2023-04-16T09:44:56.864Z,1.90
2023-04-16T09:47:42.947Z,2.00
2023-04-16T09:50:13.000Z,2.10
2023-04-16T09:52:40.192Z,1.50
2023-04-16T09:55:07.331Z,2.00
2023-04-16T09:57:38.086Z,1.60
2023-04-16T10:00:07.946Z,1.92
2023-04-16T10:02:39.361Z,1.83
2023-04-16T10:05:06.817Z,1.98
2023-04-16T10:07:35.256Z,2.10
2023-04-16T10:10:03.703Z,2.00
2023-04-16T10:12:32.902Z,2.15
2023-04-16T10:14:59.917Z,2.12
2023-04-16T10:17:27.435Z,2.10
2023-04-16T10:19:55.130Z,2.20
2023-04-16T10:22:22.019Z,2.45
2023-04-16T10:24:49.290Z,2.05
2023-04-16T10:27:17.317Z,1.73
2023-04-16T10:29:44.564Z,2.08
2023-04-16T10:32:11.802Z,2.10
2023-04-16T10:34:39.373Z,2.05
2023-04-16T10:37:06.456Z,2.08
2023-04-16T10:39:39.304Z,2.30
2023-04-16T10:42:12.451Z,1.70
2023-04-16T10:44:45.297Z,1.95
2023-04-16T10:47:14.031Z,1.90
2023-04-16T10:49:42.629Z,2.00
2023-04-16T10:52:19.621Z,1.50
2023-04-16T10:54:48.543Z,1.95
2023-04-16T10:57:17.988Z,1.52
2023-04-16T10:59:46.160Z,2.00
2023-04-16T11:02:21.065Z,1.70
2023-04-16T11:04:49.657Z,1.80
2023-04-16T11:07:32.748Z,1.80
2023-04-16T11:10:02.516Z,2.00
2023-04-16T11:12:29.391Z,1.80
2023-04-16T11:15:06.030Z,1.80
2023-04-16T11:17:44.755Z,1.85
2023-04-16T11:20:22.284Z,1.92
2023-04-16T11:22:50.172Z,1.55
2023-04-16T11:25:22.177Z,2.12
2023-04-16T11:27:49.898Z,1.87
2023-04-16T11:30:17.615Z,1.80
2023-04-16T11:32:44.969Z,1.95
2023-04-16T11:35:17.317Z,1.90
2023-04-16T11:37:44.897Z,2.15
2023-04-16T11:40:12.606Z,2.45
2023-04-16T11:42:41.077Z,2.78
2023-04-16T11:45:12.098Z,2.30
2023-04-16T11:47:46.886Z,2.65
2023-04-16T11:50:23.665Z,2.25
2023-04-16T11:52:51.533Z,2.70
2023-04-16T11:55:18.738Z,2.53
2023-04-16T11:57:46.291Z,3.05
2023-04-16T12:00:14.270Z,3.80
2023-04-16T12:02:45.727Z,3.25
2023-04-16T12:05:37.384Z,3.65
2023-04-16T12:08:08.816Z,2.50
2023-04-16T12:10:37.551Z,3.30
2023-04-16T12:13:12.924Z,4.12
2023-04-16T12:15:50.808Z,3.35
2023-04-16T12:18:19.351Z,3.70
2023-04-16T12:20:47.199Z,4.07
2023-04-16T12:23:30.695Z,4.00
2023-04-16T12:26:02.752Z,3.62
2023-04-16T12:28:34.032Z,3.37
2023-04-16T12:31:02.575Z,4.22
2023-04-16T12:33:29.804Z,3.10
2023-04-16T12:35:57.178Z,3.50
2023-04-16T12:38:25.699Z,3.25
2023-04-16T12:40:53.000Z,4.07
2023-04-16T12:43:21.611Z,3.90
2023-04-16T12:45:49.573Z,3.75
2023-04-16T12:48:16.490Z,3.72
2023-04-16T12:50:44.557Z,3.65
2023-04-16T12:53:12.112Z,3.20
2023-04-16T12:55:39.335Z,3.62
2023-04-16T12:58:06.820Z,4.12
2023-04-16T13:00:33.749Z,4.00
2023-04-16T13:03:00.784Z,4.00
2023-04-16T13:05:27.882Z,3.80
2023-04-16T13:07:54.783Z,3.40
2023-04-16T13:10:22.265Z,3.62
2023-04-16T13:12:49.247Z,4.43
2023-04-16T13:15:16.324Z,4.18
2023-04-16T13:17:43.234Z,4.07
2023-04-16T13:20:10.672Z,4.40
2023-04-16T13:22:37.736Z,3.92
2023-04-16T13:25:05.169Z,3.40
2023-04-16T13:27:32.760Z,4.18
2023-04-16T13:29:59.653Z,3.28
2023-04-16T13:32:26.824Z,4.12
2023-04-16T13:34:53.739Z,3.70
2023-04-16T13:37:20.702Z,5.22
2023-04-16T13:39:47.608Z,4.68
2023-04-16T13:42:14.498Z,5.07
2023-04-16T13:44:41.379Z,5.10
2023-04-16T13:47:08.387Z,4.87
2023-04-16T13:49:36.120Z,4.93
2023-04-16T13:52:03.526Z,5.12
2023-04-16T13:54:30.527Z,5.25
2023-04-16T13:56:57.440Z,5.10
2023-04-16T13:59:24.381Z,5.03
2023-04-16T14:01:51.666Z,4.30
2023-04-16T14:04:18.796Z,5.95
2023-04-16T14:06:45.819Z,5.87
2023-04-16T14:09:12.908Z,4.70
2023-04-16T14:11:39.950Z,5.65
2023-04-16T14:14:06.806Z,5.70
2023-04-16T14:16:35.428Z,5.43
2023-04-16T14:19:02.322Z,6.20
2023-04-16T14:21:29.180Z,6.20
2023-04-16T14:23:56.128Z,5.32
2023-04-16T14:26:23.300Z,5.72
2023-04-16T14:28:51.251Z,5.43
2023-04-16T14:31:18.454Z,6.60
2023-04-16T14:33:45.593Z,6.07
2023-04-16T14:36:12.469Z,5.85
2023-04-16T14:38:39.744Z,6.65
2023-04-16T14:41:06.659Z,6.28
2023-04-16T14:43:33.579Z,6.80
2023-04-16T14:46:00.533Z,6.55
2023-04-16T14:48:27.486Z,6.22
2023-04-16T14:50:54.385Z,7.07
2023-04-16T14:53:22.980Z,6.53
2023-04-16T14:55:49.879Z,5.57
2023-04-16T14:58:16.770Z,7.00
2023-04-16T15:00:43.716Z,7.37
2023-04-16T15:03:11.367Z,6.12
2023-04-16T15:05:39.053Z,6.82
2023-04-16T15:08:06.256Z,7.07
2023-04-16T15:10:33.229Z,6.32
2023-04-16T15:13:00.144Z,6.75
2023-04-16T15:15:27.082Z,7.03
2023-04-16T15:17:54.062Z,6.28
2023-04-16T15:20:20.983Z,7.40
2023-04-16T15:22:47.846Z,7.10
2023-04-16T15:25:14.787Z,7.10
2023-04-16T15:27:41.699Z,7.03
2023-04-16T15:30:09.089Z,7.78
2023-04-16T15:32:36.048Z,6.87
2023-04-16T15:35:03.690Z,7.68
2023-04-16T15:37:31.202Z,7.40
2023-04-16T15:39:58.054Z,8.05
2023-04-16T15:42:25.031Z,7.97
2023-04-16T15:44:51.927Z,7.15
2023-04-16T15:47:18.915Z,7.28
2023-04-16T15:49:45.802Z,7.87
2023-04-16T15:52:12.808Z,7.78
2023-04-16T15:54:39.789Z,7.32
2023-04-16T15:57:06.682Z,7.47
2023-04-16T15:59:33.726Z,8.10
2023-04-16T16:02:01.250Z,7.12
2023-04-16T16:04:28.625Z,7.90
2023-04-16T16:06:55.934Z,8.32
2023-04-16T16:09:26.766Z,7.25
2023-04-16T16:11:54.561Z,7.87
2023-04-16T16:14:22.179Z,7.25
2023-04-16T16:16:49.180Z,7.40
2023-04-16T16:19:16.735Z,7.25
2023-04-16T16:21:43.664Z,6.05
2023-04-16T16:24:10.598Z,6.72
2023-04-16T16:26:37.773Z,6.28
2023-04-16T16:29:05.802Z,6.62
2023-04-16T16:31:32.797Z,6.03
2023-04-16T16:33:59.768Z,6.05
2023-04-16T16:36:26.751Z,6.40
2023-04-16T16:38:53.705Z,5.95
2023-04-16T16:41:20.738Z,5.95
2023-04-16T16:43:47.589Z,5.80
2023-04-16T16:46:14.516Z,6.20
2023-04-16T16:48:41.449Z,5.72
2023-04-16T16:51:10.750Z,5.85
2023-04-16T16:53:37.659Z,6.18
2023-04-16T16:56:04.699Z,5.62
2023-04-16T16:58:31.684Z,6.18
2023-04-16T17:00:59.492Z,6.03
2023-04-16T17:03:26.768Z,6.32
2023-04-16T17:05:53.723Z,5.55
2023-04-16T17:08:20.700Z,6.35
2023-04-16T17:10:47.993Z,5.68
2023-04-16T17:13:19.862Z,6.65
2023-04-16T17:15:47.134Z,6.10
2023-04-16T17:18:14.093Z,5.87
2023-04-16T17:20:41.174Z,6.07
2023-04-16T17:23:08.102Z,6.00
2023-04-16T17:25:35.105Z,5.87
2023-04-16T17:28:02.562Z,5.43
2023-04-16T17:30:31.226Z,6.05
2023-04-16T17:32:58.417Z,5.47
2023-04-16T17:35:25.580Z,5.70
2023-04-16T17:37:52.548Z,5.50
2023-04-16T17:40:19.413Z,5.70
2023-04-16T17:42:46.413Z,5.28
2023-04-16T17:45:13.709Z,5.28
2023-04-16T17:47:40.848Z,5.60
2023-04-16T17:50:09.372Z,5.18
2023-04-16T17:52:37.673Z,4.80
2023-04-16T17:55:06.062Z,5.12
2023-04-16T17:57:32.943Z,4.43
2023-04-16T18:00:00.165Z,4.45
2023-04-16T18:02:27.296Z,4.55
2023-04-16T18:04:54.499Z,4.05
2023-04-16T18:07:21.510Z,4.53
2023-04-16T18:09:48.456Z,4.22
2023-04-16T18:12:15.439Z,4.82
2023-04-16T18:14:44.923Z,4.45
2023-04-16T18:17:11.905Z,4.22
2023-04-16T18:19:40.683Z,4.65
2023-04-16T18:22:07.674Z,4.05
2023-04-16T18:24:36.572Z,4.18
2023-04-16T18:27:04.053Z,4.45
2023-04-16T18:29:33.948Z,4.93
2023-04-16T18:32:04.320Z,4.32
2023-04-16T18:34:32.033Z,4.05
2023-04-16T18:36:58.907Z,4.50
2023-04-16T18:39:25.842Z,4.05
2023-04-16T18:41:52.794Z,4.45
2023-04-16T18:44:20.126Z,4.18
2023-04-16T18:46:47.134Z,4.78
2023-04-16T18:49:14.134Z,4.15
2023-04-16T18:51:42.237Z,4.53
2023-04-16T18:54:09.395Z,4.03
2023-04-16T18:56:36.388Z,3.92
2023-04-16T18:59:03.271Z,4.32
2023-04-16T19:01:30.314Z,3.90
2023-04-16T19:03:57.462Z,3.90
2023-04-16T19:06:24.403Z,3.90
2023-04-16T19:08:51.455Z,3.60
2023-04-16T19:11:18.324Z,3.80
2023-04-16T19:13:45.206Z,4.18
2023-04-16T19:16:12.507Z,3.72
2023-04-16T19:18:39.543Z,4.70
2023-04-16T19:21:07.405Z,3.75
2023-04-16T19:23:34.324Z,4.12
2023-04-16T19:26:01.785Z,3.85
2023-04-16T19:28:28.890Z,4.35
2023-04-16T19:30:56.258Z,4.22
2023-04-16T19:33:23.253Z,3.62
2023-04-16T19:35:50.196Z,3.85
2023-04-16T19:38:17.159Z,3.95
2023-04-16T19:40:46.546Z,3.65
2023-04-16T19:43:13.849Z,4.22
2023-04-16T19:45:48.113Z,3.62
2023-04-16T19:48:15.091Z,3.97
2023-04-16T19:50:42.795Z,3.58
2023-04-16T19:53:10.719Z,3.47
2023-04-16T19:55:39.848Z,3.72
2023-04-16T19:58:07.046Z,4.22
2023-04-16T20:00:35.279Z,3.62
2023-04-16T20:03:02.491Z,4.05
2023-04-16T20:05:29.641Z,3.53
2023-04-16T20:07:56.758Z,3.90
2023-04-16T20:10:24.160Z,3.67
2023-04-16T20:12:51.108Z,3.53
2023-04-16T20:15:18.521Z,4.00
2023-04-16T20:17:46.032Z,4.10
2023-04-16T20:20:15.872Z,3.42
2023-04-16T20:22:43.504Z,3.62
2023-04-16T20:25:10.564Z,3.55
2023-04-16T20:27:37.514Z,3.78
2023-04-16T20:30:06.338Z,3.65
2023-04-16T20:32:33.507Z,3.60
2023-04-16T20:35:00.513Z,3.65
2023-04-16T20:37:29.223Z,3.72
2023-04-16T20:39:56.480Z,3.72
2023-04-16T20:42:26.516Z,3.62
2023-04-16T20:44:56.706Z,3.72
2023-04-16T20:47:23.917Z,3.42
2023-04-16T20:49:53.007Z,3.75
2023-04-16T20:52:20.080Z,3.97
2023-04-16T20:54:47.852Z,4.15
2023-04-16T20:57:14.829Z,3.70
2023-04-16T20:59:41.758Z,4.12
2023-04-16T21:02:09.118Z,3.92
2023-04-16T21:04:36.309Z,3.90
2023-04-16T21:07:04.442Z,4.00
2023-04-16T21:09:31.743Z,4.32
2023-04-16T21:11:58.747Z,4.10
2023-04-16T21:14:25.794Z,4.37
2023-04-16T21:16:52.735Z,3.83
2023-04-16T21:19:20.164Z,3.95
2023-04-16T21:21:47.134Z,4.18
2023-04-16T21:24:14.086Z,4.00
2023-04-16T21:26:41.050Z,3.72
2023-04-16T21:29:07.959Z,3.90
2023-04-16T21:31:35.027Z,4.25
2023-04-16T21:34:01.925Z,4.53
2023-04-16T21:36:29.403Z,4.22
2023-04-16T21:38:56.318Z,4.20
2023-04-16T21:41:23.181Z,4.28
2023-04-16T21:43:50.018Z,4.12
2023-04-16T21:46:16.986Z,4.25
2023-04-16T21:48:43.978Z,3.72
2023-04-16T21:51:10.870Z,3.78
2023-04-16T21:53:39.190Z,3.65
2023-04-16T21:56:06.781Z,4.60
2023-04-16T21:58:33.712Z,3.90
2023-04-16T22:01:00.626Z,3.65
2023-04-16T22:03:28.158Z,4.03
2023-04-16T22:06:01.128Z,4.03
2023-04-16T22:08:29.015Z,3.92
2023-04-16T22:10:59.989Z,3.55
2023-04-16T22:13:27.275Z,4.00
2023-04-16T22:15:55.408Z,3.97
2023-04-16T22:18:25.742Z,4.07
2023-04-16T22:20:56.190Z,4.20
2023-04-16T22:23:26.239Z,3.60
2023-04-16T22:25:54.976Z,4.10
2023-04-16T22:28:21.849Z,3.72
2023-04-16T22:30:49.002Z,4.15
2023-04-16T22:33:16.040Z,3.97
2023-04-16T22:35:42.987Z,3.80
2023-04-16T22:38:10.290Z,3.62
2023-04-16T22:40:37.285Z,3.50
2023-04-16T22:43:04.335Z,3.60
2023-04-16T22:45:31.310Z,3.60
2023-04-16T22:47:58.254Z,3.70
2023-04-16T22:50:25.126Z,3.80
2023-04-16T22:52:52.001Z,3.90
2023-04-16T22:55:19.015Z,4.05
2023-04-16T22:57:46.057Z,3.62
2023-04-16T23:00:17.957Z,3.67
2023-04-16T23:02:45.663Z,3.70
2023-04-16T23:05:12.635Z,3.90
2023-04-16T23:07:39.528Z,3.42
2023-04-16T23:10:08.738Z,4.25
2023-04-16T23:12:37.622Z,4.00
2023-04-16T23:15:06.858Z,4.72
2023-04-16T23:17:35.203Z,4.05
2023-04-16T23:20:02.521Z,3.33
2023-04-16T23:22:29.494Z,3.95
2023-04-16T23:24:56.520Z,3.75
2023-04-16T23:27:23.409Z,4.20
2023-04-16T23:29:50.377Z,4.30
2023-04-16T23:32:17.389Z,3.67
2023-04-16T23:34:44.306Z,4.00
2023-04-16T23:37:11.180Z,4.28
2023-04-16T23:39:38.078Z,4.35
2023-04-16T23:42:05.044Z,4.40
2023-04-16T23:44:31.981Z,4.62
2023-04-16T23:46:59.047Z,4.45
2023-04-16T23:49:26.360Z,4.50
2023-04-16T23:51:53.224Z,4.55
2023-04-16T23:54:20.206Z,4.72
2023-04-16T23:56:47.226Z,4.32
2023-04-16T23:59:14.463Z,4.62
